ADDS METAR Data INFO
IDs: Format: Raw Decoded Include TAF

Data at: 1716 UTC 23 Oct 2017

KIRS 231714Z AUTO 00000KT 7SM -RA SCT006 BKN010 OVC028 15/15 A2967 RMK AO2 P0003 T01500147
KIRS 231655Z AUTO 00000KT 10SM -RA SCT023 OVC028 15/15 A2969 RMK AO2 P0013 T01500145
KIRS 231634Z AUTO 00000KT 4SM +RA BKN024 OVC030 15/14 A2972 RMK AO2 P0009 T01510143
KIRS 231614Z AUTO 16007KT 5SM RA SCT021 BKN025 OVC037 15/14 A2973 RMK AO2 P0002 T01510142
KIRS 231555Z AUTO 15004KT 10SM RA BKN024 BKN038 OVC070 16/14 A2973 RMK AO2 P0001 T01560141
KIRS 231534Z AUTO 00000KT 10SM -RA BKN024 BKN034 OVC095 16/14 A2974 RMK AO2 P0001 T01550141
KIRS 231515Z AUTO 13004KT 10SM -DZ BKN024 OVC034 15/14 A2974 RMK AO2 T01510140
KIRS 231454Z AUTO 14006KT 10SM -RA SCT019 BKN024 OVC029 15/14 A2976 RMK AO2 P0002 60011 T01470136
KIRS 231434Z AUTO 15007KT 10SM -RA SCT019 BKN031 OVC047 15/14 A2977 RMK AO2 P0001 T01480137
KIRS 231415Z AUTO 15010KT 10SM RA SCT027 BKN042 OVC100 15/14 A2978 RMK AO2 T01460135
KIRS 231359Z AUTO 13007KT 10SM -RA SCT027 BKN039 OVC080 14/13 A2979 RMK AO2 P0004 T01430133
KIRS 231335Z AUTO 13008KT 10SM -RA SCT039 OVC065 14/13 A2980 RMK AO2 P0003 T01430132
KIRS 231315Z AUTO 13007KT 10SM RA SCT029 BKN065 OVC075 15/13 A2981 RMK AO2 P0001 T01450132
KIRS 231254Z AUTO 14009KT 7SM RA OVC031 15/13 A2983 RMK AO2 P0004 T01460128
KIRS 231235Z AUTO 14007KT 10SM RA SCT025 BKN031 OVC060 16/13 A2983 RMK AO2 T01550125
KIRS 231215Z AUTO 14007KT 10SM RA BKN025 BKN043 OVC060 16/13 A2983 RMK AO2 T01560125
KIRS 231154Z AUTO 11004KT 10SM -RA OVC025 16/13 A2983 RMK AO2 P0001 60001 70001 T01600125 10182 20159
KIRS 231135Z AUTO 10SM RA BKN025 OVC033 16/13 A2984 RMK AO2 T01600126
KIRS 231114Z AUTO 10SM RA SCT027 BKN041 OVC110 16/13 A2985 RMK AO2 T01600126
KIRS 231054Z AUTO 13003KT 10SM -RA BKN031 BKN050 OVC110 17/13 A2985 RMK AO2 T01650125
KIRS 231035Z AUTO 15004KT 10SM -RA BKN033 OVC050 17/13 A2987 RMK AO2 T01660126
KIRS 231015Z AUTO 16006KT 10SM DZ SCT033 BKN050 OVC120 17/12 A2987 RMK AO2 T01720120
KIRS 230954Z AUTO 13005KT 10SM SCT037 BKN060 BKN070 17/12 A2987 RMK AO2 T01710120
KIRS 230935Z AUTO 16005KT 10SM SCT037 BKN048 BKN100 17/12 A2988 RMK AO2 T01700121
KIRS 230915Z AUTO 15005KT 10SM SCT048 SCT100 BKN120 17/12 A2989 RMK AO2 T01700123
KIRS 230854Z AUTO 15003KT 10SM SCT049 SCT075 BKN110 17/12 A2989 RMK AO2 T01730121
KIRS 230835Z AUTO 00000KT 10SM SCT050 SCT120 17/12 A2991 RMK AO2 T01720122
KIRS 230814Z AUTO 15003KT 10SM BKN050 18/12 A2991 RMK AO2 T01770122
KIRS 230754Z AUTO 00000KT 10SM SCT043 OVC050 18/12 A2992 RMK AO2 T01770123
KIRS 230735Z AUTO 19004KT 10SM OVC050 18/12 A2993 RMK AO2 T01800122
KIRS 230714Z AUTO 19004KT 10SM BKN050 OVC060 18/12 A2993 RMK AO2 T01800123
KIRS 230654Z AUTO 17003KT 10SM OVC050 18/12 A2993 RMK AO2 T01810123
KIRS 230635Z AUTO 19003KT 10SM OVC050 18/13 A2994 RMK AO2 T01810125
KIRS 230614Z AUTO 16003KT 10SM OVC050 18/13 A2994 RMK AO2 T01810125
KIRS 230554Z AUTO 15003KT 10SM OVC050 18/13 A2995 RMK AO2 T01810127 10218 20181 402450145
KIRS 230535Z AUTO 16003KT 10SM OVC050 18/13 A2996 RMK AO2 T01840126
KIRS 230514Z AUTO 18003KT 10SM OVC050 19/13 A2996 RMK AO2 T01850127
KIRS 230455Z AUTO 20004KT 10SM OVC048 19/13 A2996 RMK AO2 T01850127
KIRS 230435Z AUTO 19005KT 10SM OVC044 19/13 A2997 RMK AO2 T01920127
KIRS 230414Z AUTO 19007KT 10SM OVC044 20/13 A2997 RMK AO2 T01950128
KIRS 230355Z AUTO 20007KT 10SM OVC044 20/13 A2998 RMK AO2 T01960130
KIRS 230335Z AUTO 21006KT 10SM OVC044 20/13 A2998 RMK AO2 T01960133
KIRS 230314Z AUTO 21006G79KT 10SM OVC044 20/14 A2999 RMK AO2 T02000135
KIRS 230255Z AUTO 22006KT 10SM OVC044 20/14 A2999 RMK AO2 T02020136
KIRS 230235Z AUTO 19008KT 10SM OVC046 21/14 A2999 RMK AO2 T02050136
KIRS 230214Z AUTO 19009KT 10SM OVC046 21/14 A2999 RMK AO2 T02090136
KIRS 230155Z AUTO 18010G14KT 10SM BKN046 OVC060 21/14 A2999 RMK AO2 T02110137
KIRS 230135Z AUTO 18009KT 10SM SCT050 OVC060 21/14 A2999 RMK AO2 T02110140
KIRS 230114Z AUTO 18009G14KT 10SM OVC050 22/14 A2999 RMK AO2 T02150141
KIRS 230055Z AUTO 18009KT 10SM OVC050 21/14 A2999 RMK AO2 T02140143
KIRS 230035Z AUTO 18006KT 10SM OVC050 22/15 A2999 RMK AO2 T02150145
KIRS 230014Z AUTO 18006KT 10SM OVC050 22/15 A2999 RMK AO2 T02150145
KIRS 222355Z AUTO 18008G33KT 10SM OVC050 22/14 A2999 RMK AO2 T02180143 10245 20218
KIRS 222335Z AUTO 11006G14KT 10SM OVC050 22/14 A2998 RMK AO2 T02220142
KIRS 222314Z AUTO 18008KT 10SM BKN050 BKN080 OVC110 22/14 A2998 RMK AO2 T02210142
KIRS 222255Z AUTO 18008KT 10SM BKN055 BKN070 OVC110 22/14 A2998 RMK AO2 T02240144
KIRS 222235Z AUTO 18010KT 10SM SCT046 OVC055 23/15 A2998 RMK AO2 T02270145
KIRS 222214Z AUTO 18010KT 10SM OVC048 23/15 A2999 RMK AO2 T02280147
KIRS 222155Z AUTO 18008KT 10SM OVC050 23/15 A2999 RMK AO2 T02270150
KIRS 222135Z AUTO 18006KT 10SM OVC048 23/15 A2999 RMK AO2 T02270150
KIRS 222114Z AUTO 20008KT 10SM BKN048 BKN060 OVC070 23/15 A2999 RMK AO2 T02280149
KIRS 222055Z AUTO 20008G14KT 10SM BKN048 BKN055 OVC070 23/15 A2999 RMK AO2 T02280151
KIRS 222034Z AUTO 19012G17KT 10SM SCT070 23/15 A3000 RMK AO2 T02320147
KIRS 222014Z AUTO 17013G17KT 10SM SCT120 23/15 A2999 RMK AO2 T02340147
KIRS 221955Z AUTO 18013G17KT 10SM SCT120 24/15 A2999 RMK AO2 T02350148
KIRS 221935Z AUTO 19016G21KT 10SM SCT120 24/15 A2999 RMK AO2 T02370150
KIRS 221914Z AUTO 18017G21KT 10SM SCT048 SCT055 BKN120 23/15 A2999 RMK AO2 T02320148
KIRS 221855Z AUTO 19015G19KT 10SM BKN046 BKN055 23/15 A3000 RMK AO2 T02300145
KIRS 221835Z AUTO 19011G21KT 10SM SCT037 BKN046 23/15 A3001 RMK AO2 T02300145
KIRS 221814Z AUTO 20013G20KT 10SM SCT037 BKN047 BKN060 23/14 A3002 RMK AO2 T02250143
KIRS 221755Z AUTO 20014G26KT 10SM SCT037 BKN045 BKN050 23/15 A3003 RMK AO2 T02290145 10229 20145
KIRS 221734Z AUTO 20017G21KT 10SM SCT035 BKN047 BKN055 23/15 A3004 RMK AO2 T02260145
KIRS 221715Z AUTO 19011G15KT 10SM OVC035 23/15 A3005 RMK AO2 T02250145
KIRS 221655Z AUTO 19015G19KT 10SM BKN036 BKN042 BKN050 22/14 A3006 RMK AO2 T02220143
KIRS 221634Z AUTO 19015G20KT 10SM SCT042 22/14 A3006 RMK AO2 T02160139
KIRS 221615Z AUTO 20013KT 10SM SCT039 22/14 A3007 RMK AO2 T02150138
KIRS 221555Z AUTO 19011G20KT 10SM SCT039 22/14 A3007 RMK AO2 T02160140
KIRS 221534Z AUTO 19011KT 10SM CLR 20/13 A3007 RMK AO2 T02030133
KIRS 221515Z AUTO 19015G21KT 10SM CLR 19/13 A3007 RMK AO2 T01930130
KIRS 221455Z AUTO 19016G20KT 10SM CLR 20/13 A3007 RMK AO2 T01960129
KIRS 221434Z AUTO 18013KT 10SM CLR 18/12 A3008 RMK AO2 T01820121
KIRS 221415Z AUTO 18013G16KT 10SM CLR 18/12 A3009 RMK AO2 T01770119
KIRS 221355Z AUTO 19012G15KT 10SM CLR 18/11 A3009 RMK AO2 T01760113
KIRS 221334Z AUTO 18012G16KT 10SM CLR 17/11 A3009 RMK AO2 T01670108
KIRS 221315Z AUTO 17009G15KT 10SM CLR 16/10 A3009 RMK AO2 T01580102
KIRS 221255Z AUTO 17011G16KT 10SM CLR 15/10 A3009 RMK AO2 T01530098
KIRS 221234Z AUTO 16010KT 10SM CLR 15/10 A3008 RMK AO2 T01460095
KIRS 221215Z AUTO 16010KT 10SM CLR 15/09 A3008 RMK AO2 T01450093
KIRS 221155Z AUTO 17008KT 10SM SCT055 15/09 A3008 RMK AO2 T01470092 10166 20147
KIRS 221134Z AUTO 16009KT 10SM CLR 15/09 A3007 RMK AO2 T01490090
KIRS 221115Z AUTO 17007KT 10SM CLR 15/09 A3007 RMK AO2 T01520090
KIRS 221054Z AUTO 17007KT 10SM CLR 16/09 A3007 RMK AO2 T01550087
KIRS 221034Z AUTO 17008G14KT 10SM CLR 16/09 A3007 RMK AO2 T01550085
KIRS 221015Z AUTO 16010G15KT 10SM CLR 15/09 A3007 RMK AO2 T01540085
KIRS 220954Z AUTO 16011KT 10SM CLR 16/09 A3007 RMK AO2 T01550085
KIRS 220934Z AUTO 17008KT 10SM CLR 16/08 A3007 RMK AO2 T01590084
KIRS 220915Z AUTO 17009KT 10SM CLR 16/08 A3007 RMK AO2 T01610084
KIRS 220854Z AUTO 17008KT 10SM CLR 16/09 A3007 RMK AO2 T01550085
KIRS 220834Z AUTO 17007KT 10SM CLR 15/09 A3009 RMK AO2 T01540085
KIRS 220815Z AUTO 17007KT 10SM CLR 16/09 A3009 RMK AO2 T01550086
KIRS 220754Z AUTO 18007KT 10SM CLR 16/09 A3010 RMK AO2 T01550086
KIRS 220735Z AUTO 19007KT 10SM CLR 16/09 A3011 RMK AO2 T01560085
KIRS 220715Z AUTO 19007KT 10SM CLR 16/09 A3011 RMK AO2 T01560085
KIRS 220654Z AUTO 19009KT 10SM CLR 16/08 A3011 RMK AO2 T01610083
KIRS 220635Z AUTO 19009G14KT 10SM SCT120 16/08 A3011 RMK AO2 T01630083
KIRS 220615Z AUTO 19008KT 10SM BKN120 17/08 A3012 RMK AO2 T01660083
KIRS 220554Z AUTO 19008KT 10SM CLR 17/08 A3012 RMK AO2 T01660083 10191 20163 402370119
KIRS 220535Z AUTO 18009G14KT 10SM CLR 17/08 A3012 RMK AO2 T01670082